sensor_id;sensor_type;location;lat;lon;timestamp;pressure;altitude;pressure_sealevel;temperature;humidity
49423;BME280;36998;51.974;20.150;2022-08-02T00:01:55;99963.41;;;21.45;67.10
49423;BME280;36998;51.974;20.150;2022-08-02T00:04:20;99961.75;;;21.44;66.92
49423;BME280;36998;51.974;20.150;2022-08-02T00:06:46;99962.84;;;21.43;67.06
49423;BME280;36998;51.974;20.150;2022-08-02T00:09:14;99961.91;;;21.37;67.36
49423;BME280;36998;51.974;20.150;2022-08-02T00:11:48;99954.25;;;21.27;67.37
49423;BME280;36998;51.974;20.150;2022-08-02T00:14:14;99963.69;;;21.20;67.79
49423;BME280;36998;51.974;20.150;2022-08-02T00:16:40;99955.59;;;21.13;67.82
49423;BME280;36998;51.974;20.150;2022-08-02T00:19:05;99963.69;;;21.08;68.00
49423;BME280;36998;51.974;20.150;2022-08-02T00:21:31;99955.59;;;21.01;68.17
49423;BME280;36998;51.974;20.150;2022-08-02T00:23:56;99962.28;;;20.94;68.63
49423;BME280;36998;51.974;20.150;2022-08-02T00:26:22;99963.22;;;20.88;68.68
49423;BME280;36998;51.974;20.150;2022-08-02T00:28:47;99960.25;;;20.77;68.70
49423;BME280;36998;51.974;20.150;2022-08-02T00:31:13;99969.44;;;20.71;69.06
49423;BME280;36998;51.974;20.150;2022-08-02T00:33:38;99968.25;;;20.67;69.37
49423;BME280;36998;51.974;20.150;2022-08-02T00:36:04;99961.19;;;20.60;69.54
49423;BME280;36998;51.974;20.150;2022-08-02T00:38:29;99960.81;;;20.56;69.83
49423;BME280;36998;51.974;20.150;2022-08-02T00:40:55;99979.91;;;20.51;70.10
49423;BME280;36998;51.974;20.150;2022-08-02T00:43:20;99968.94;;;20.51;69.95
49423;BME280;36998;51.974;20.150;2022-08-02T00:45:46;99981.19;;;20.48;70.47
49423;BME280;36998;51.974;20.150;2022-08-02T00:48:12;99979.91;;;20.51;70.45
49423;BME280;36998;51.974;20.150;2022-08-02T00:50:39;99981.56;;;20.52;70.56
49423;BME280;36998;51.974;20.150;2022-08-02T00:53:05;99981.94;;;20.55;70.88
49423;BME280;36998;51.974;20.150;2022-08-02T00:55:34;99988.03;;;20.57;71.00
49423;BME280;36998;51.974;20.150;2022-08-02T00:58:00;99987.78;;;20.59;70.80
49423;BME280;36998;51.974;20.150;2022-08-02T01:00:25;99986.47;;;20.62;70.84
49423;BME280;36998;51.974;20.150;2022-08-02T01:02:51;99987.31;;;20.62;70.76
49423;BME280;36998;51.974;20.150;2022-08-02T01:05:16;99993.88;;;20.61;70.69
49423;BME280;36998;51.974;20.150;2022-08-02T01:07:42;99996.38;;;20.63;70.55
49423;BME280;36998;51.974;20.150;2022-08-02T01:10:08;99997.22;;;20.63;70.61
49423;BME280;36998;51.974;20.150;2022-08-02T01:12:33;99998.75;;;20.59;70.37
49423;BME280;36998;51.974;20.150;2022-08-02T01:15:01;99999.59;;;20.60;70.34
49423;BME280;36998;51.974;20.150;2022-08-02T01:17:39;99998.28;;;20.62;70.24
49423;BME280;36998;51.974;20.150;2022-08-02T01:23:37;99990.09;;;20.74;69.83
49423;BME280;36998;51.974;20.150;2022-08-02T01:28:53;100002.22;;;20.66;69.70
49423;BME280;36998;51.974;20.150;2022-08-02T01:31:29;100016.06;;;20.60;69.43
49423;BME280;36998;51.974;20.150;2022-08-02T01:34:03;100003.75;;;20.50;69.75
49423;BME280;36998;51.974;20.150;2022-08-02T01:36:38;100006.59;;;20.44;69.92
49423;BME280;36998;51.974;20.150;2022-08-02T01:39:08;100011.31;;;20.37;70.17
49423;BME280;36998;51.974;20.150;2022-08-02T01:41:37;100009.41;;;20.37;69.73
49423;BME280;36998;51.974;20.150;2022-08-02T01:44:04;100007.28;;;20.39;69.87
49423;BME280;36998;51.974;20.150;2022-08-02T01:46:32;100005.16;;;20.41;69.50
49423;BME280;36998;51.974;20.150;2022-08-02T01:49:02;100008.47;;;20.43;69.68
49423;BME280;36998;51.974;20.150;2022-08-02T01:51:28;100003.59;;;20.45;69.69
49423;BME280;36998;51.974;20.150;2022-08-02T01:54:16;100008.25;;;20.45;69.79
49423;BME280;36998;51.974;20.150;2022-08-02T01:56:43;100009.09;;;20.45;69.89
49423;BME280;36998;51.974;20.150;2022-08-02T01:59:12;100001.69;;;20.46;70.00
49423;BME280;36998;51.974;20.150;2022-08-02T02:01:39;100006.09;;;20.47;70.13
49423;BME280;36998;51.974;20.150;2022-08-02T02:04:07;100007.78;;;20.48;70.43
49423;BME280;36998;51.974;20.150;2022-08-02T02:06:35;100010.09;;;20.51;70.12
49423;BME280;36998;51.974;20.150;2022-08-02T02:09:02;100003.06;;;20.55;69.86
49423;BME280;36998;51.974;20.150;2022-08-02T02:11:28;100003.66;;;20.57;69.83
49423;BME280;36998;51.974;20.150;2022-08-02T02:13:57;99999.22;;;20.56;70.36
49423;BME280;36998;51.974;20.150;2022-08-02T02:16:23;99996.47;;;20.56;70.07
49423;BME280;36998;51.974;20.150;2022-08-02T02:18:49;99997.78;;;20.53;70.35
49423;BME280;36998;51.974;20.150;2022-08-02T02:21:16;100004.34;;;20.52;70.52
49423;BME280;36998;51.974;20.150;2022-08-02T02:23:42;100004.59;;;20.51;70.73
49423;BME280;36998;51.974;20.150;2022-08-02T02:26:10;100000.59;;;20.47;71.10
49423;BME280;36998;51.974;20.150;2022-08-02T02:29:02;99993.91;;;20.43;71.15
49423;BME280;36998;51.974;20.150;2022-08-02T02:31:31;100001.16;;;20.37;71.22
49423;BME280;36998;51.974;20.150;2022-08-02T02:34:16;100002.50;;;20.34;71.60
49423;BME280;36998;51.974;20.150;2022-08-02T02:36:47;99997.69;;;20.30;71.62
49423;BME280;36998;51.974;20.150;2022-08-02T02:39:32;99996.28;;;20.27;71.32
49423;BME280;36998;51.974;20.150;2022-08-02T02:42:01;99992.94;;;20.25;71.68
49423;BME280;36998;51.974;20.150;2022-08-02T02:44:28;100004.03;;;20.30;71.73
49423;BME280;36998;51.974;20.150;2022-08-02T02:46:55;99989.47;;;20.30;71.89
49423;BME280;36998;51.974;20.150;2022-08-02T02:49:22;99985.69;;;20.31;72.00
49423;BME280;36998;51.974;20.150;2022-08-02T02:51:49;99993.91;;;20.31;72.34
49423;BME280;36998;51.974;20.150;2022-08-02T02:54:16;99993.28;;;20.29;72.35
49423;BME280;36998;51.974;20.150;2022-08-02T02:56:43;99987.81;;;20.29;72.47
49423;BME280;36998;51.974;20.150;2022-08-02T02:59:11;99990.91;;;20.32;72.24
49423;BME280;36998;51.974;20.150;2022-08-02T03:01:58;99996.09;;;20.41;72.04
49423;BME280;36998;51.974;20.150;2022-08-02T03:04:26;99990.59;;;20.41;72.27
49423;BME280;36998;51.974;20.150;2022-08-02T03:06:53;99992.00;;;20.43;72.25
49423;BME280;36998;51.974;20.150;2022-08-02T03:09:18;99993.34;;;20.41;72.22
49423;BME280;36998;51.974;20.150;2022-08-02T03:11:44;99996.09;;;20.41;72.31
49423;BME280;36998;51.974;20.150;2022-08-02T03:14:11;99997.97;;;20.40;72.45
49423;BME280;36998;51.974;20.150;2022-08-02T03:16:43;99999.66;;;20.41;72.30
49423;BME280;36998;51.974;20.150;2022-08-02T03:19:09;99999.88;;;20.40;72.30
49423;BME280;36998;51.974;20.150;2022-08-02T03:21:34;99994.38;;;20.40;72.30
49423;BME280;36998;51.974;20.150;2022-08-02T03:24:00;100002.97;;;20.43;72.20
49423;BME280;36998;51.974;20.150;2022-08-02T03:26:25;100004.34;;;20.52;72.19
49423;BME280;36998;51.974;20.150;2022-08-02T03:28:51;100002.94;;;20.62;72.15
49423;BME280;36998;51.974;20.150;2022-08-02T03:31:16;100008.06;;;20.70;71.97
49423;BME280;36998;51.974;20.150;2022-08-02T03:33:42;100006.06;;;20.77;71.58
49423;BME280;36998;51.974;20.150;2022-08-02T03:36:11;100009.53;;;20.84;71.52
49423;BME280;36998;51.974;20.150;2022-08-02T03:38:38;100008.34;;;20.92;71.29
49423;BME280;36998;51.974;20.150;2022-08-02T03:41:05;100008.47;;;20.97;71.31
49423;BME280;36998;51.974;20.150;2022-08-02T03:43:31;100007.06;;;21.06;71.50
49423;BME280;36998;51.974;20.150;2022-08-02T03:45:57;100002.84;;;21.15;71.13
49423;BME280;36998;51.974;20.150;2022-08-02T03:48:26;100011.91;;;21.27;70.92
49423;BME280;36998;51.974;20.150;2022-08-02T03:50:52;100013.88;;;21.39;70.74
49423;BME280;36998;51.974;20.150;2022-08-02T03:53:18;100019.81;;;21.47;70.57
49423;BME280;36998;51.974;20.150;2022-08-02T03:55:44;100024.59;;;21.52;70.32
49423;BME280;36998;51.974;20.150;2022-08-02T03:58:23;100019.66;;;21.54;70.29
49423;BME280;36998;51.974;20.150;2022-08-02T04:00:50;100024.69;;;21.57;70.21
49423;BME280;36998;51.974;20.150;2022-08-02T04:03:16;100021.94;;;21.57;70.24
49423;BME280;36998;51.974;20.150;2022-08-02T04:05:41;100032.09;;;21.57;70.08
49423;BME280;36998;51.974;20.150;2022-08-02T04:08:07;100035.47;;;21.59;70.18
49423;BME280;36998;51.974;20.150;2022-08-02T04:10:33;100030.31;;;21.62;70.06
49423;BME280;36998;51.974;20.150;2022-08-02T04:13:23;100035.31;;;21.65;69.85
49423;BME280;36998;51.974;20.150;2022-08-02T04:15:56;100043.19;;;21.73;69.75
49423;BME280;36998;51.974;20.150;2022-08-02T04:18:40;100044.00;;;21.86;69.60
49423;BME280;36998;51.974;20.150;2022-08-02T04:21:11;100045.78;;;21.92;69.29
49423;BME280;36998;51.974;20.150;2022-08-02T04:23:39;100046.81;;;22.03;69.06
49423;BME280;36998;51.974;20.150;2022-08-02T04:26:06;100044.41;;;22.18;68.84
49423;BME280;36998;51.974;20.150;2022-08-02T04:28:32;100043.94;;;22.38;68.46
49423;BME280;36998;51.974;20.150;2022-08-02T04:30:59;100051.41;;;22.54;67.94
49423;BME280;36998;51.974;20.150;2022-08-02T04:33:25;100060.44;;;22.66;67.64
49423;BME280;36998;51.974;20.150;2022-08-02T04:35:51;100053.16;;;22.77;67.45
49423;BME280;36998;51.974;20.150;2022-08-02T04:38:17;100057.19;;;22.86;67.13
49423;BME280;36998;51.974;20.150;2022-08-02T04:40:53;100052.72;;;22.97;66.98
49423;BME280;36998;51.974;20.150;2022-08-02T04:43:20;100051.78;;;23.08;66.52
49423;BME280;36998;51.974;20.150;2022-08-02T04:45:48;100048.09;;;23.20;66.09
49423;BME280;36998;51.974;20.150;2022-08-02T04:48:15;100061.81;;;23.53;65.41
49423;BME280;36998;51.974;20.150;2022-08-02T04:50:50;100057.91;;;23.49;65.55
49423;BME280;36998;51.974;20.150;2022-08-02T04:53:15;100067.16;;;23.60;65.14
49423;BME280;36998;51.974;20.150;2022-08-02T04:55:41;100061.97;;;23.64;65.08
49423;BME280;36998;51.974;20.150;2022-08-02T04:58:07;100073.16;;;23.74;64.62
49423;BME280;36998;51.974;20.150;2022-08-02T05:00:33;100078.16;;;23.77;64.25
49423;BME280;36998;51.974;20.150;2022-08-02T05:02:59;100080.16;;;23.81;64.27
49423;BME280;36998;51.974;20.150;2022-08-02T05:05:28;100086.25;;;23.83;64.12
49423;BME280;36998;51.974;20.150;2022-08-02T05:07:53;100090.88;;;23.78;64.29
49423;BME280;36998;51.974;20.150;2022-08-02T05:10:20;100080.69;;;23.78;64.43
49423;BME280;36998;51.974;20.150;2022-08-02T05:12:45;100088.13;;;23.78;64.23
49423;BME280;36998;51.974;20.150;2022-08-02T05:15:12;100090.28;;;23.76;64.36
49423;BME280;36998;51.974;20.150;2022-08-02T05:17:37;100092.44;;;23.74;64.34
49423;BME280;36998;51.974;20.150;2022-08-02T05:20:04;100088.25;;;23.88;64.27
49423;BME280;36998;51.974;20.150;2022-08-02T05:22:29;100097.81;;;24.02;63.99
49423;BME280;36998;51.974;20.150;2022-08-02T05:24:55;100094.59;;;24.11;63.47
49423;BME280;36998;51.974;20.150;2022-08-02T05:27:20;100104.16;;;24.03;63.76
49423;BME280;36998;51.974;20.150;2022-08-02T05:29:46;100107.69;;;23.98;63.70
49423;BME280;36998;51.974;20.150;2022-08-02T05:32:11;100111.53;;;23.97;63.75
49423;BME280;36998;51.974;20.150;2022-08-02T05:34:37;100102.69;;;23.95;63.85
49423;BME280;36998;51.974;20.150;2022-08-02T05:37:02;100101.53;;;23.91;64.01
49423;BME280;36998;51.974;20.150;2022-08-02T05:39:29;100112.25;;;23.88;64.06
49423;BME280;36998;51.974;20.150;2022-08-02T05:41:54;100116.56;;;23.83;63.97
49423;BME280;36998;51.974;20.150;2022-08-02T05:44:20;100119.16;;;23.68;64.37
49423;BME280;36998;51.974;20.150;2022-08-02T05:46:45;100111.19;;;23.55;64.92
49423;BME280;36998;51.974;20.150;2022-08-02T05:49:17;100121.22;;;23.44;65.17
49423;BME280;36998;51.974;20.150;2022-08-02T05:51:51;100130.16;;;23.34;65.53
49423;BME280;36998;51.974;20.150;2022-08-02T05:54:36;100124.41;;;23.36;65.52
49423;BME280;36998;51.974;20.150;2022-08-02T05:57:16;100122.75;;;23.35;65.40
49423;BME280;36998;51.974;20.150;2022-08-02T06:00:00;100129.31;;;23.34;65.61
49423;BME280;36998;51.974;20.150;2022-08-02T06:03:25;100136.84;;;23.39;65.37
49423;BME280;36998;51.974;20.150;2022-08-02T06:06:07;100144.19;;;23.33;65.73
49423;BME280;36998;51.974;20.150;2022-08-02T06:08:44;100141.63;;;23.26;65.80
49423;BME280;36998;51.974;20.150;2022-08-02T06:11:16;100136.09;;;23.26;65.80
49423;BME280;36998;51.974;20.150;2022-08-02T06:13:43;100140.13;;;23.35;65.78
49423;BME280;36998;51.974;20.150;2022-08-02T06:16:10;100145.53;;;23.47;65.68
49423;BME280;36998;51.974;20.150;2022-08-02T06:18:36;100143.00;;;23.63;65.49
49423;BME280;36998;51.974;20.150;2022-08-02T06:21:05;100141.25;;;23.73;65.24
49423;BME280;36998;51.974;20.150;2022-08-02T06:23:39;100150.78;;;23.82;64.92
49423;BME280;36998;51.974;20.150;2022-08-02T06:26:07;100154.81;;;23.97;64.54
49423;BME280;36998;51.974;20.150;2022-08-02T06:28:36;100155.34;;;24.16;64.59
49423;BME280;36998;51.974;20.150;2022-08-02T06:31:02;100154.22;;;24.34;63.96
49423;BME280;36998;51.974;20.150;2022-08-02T06:33:27;100163.22;;;24.46;63.32
49423;BME280;36998;51.974;20.150;2022-08-02T06:36:03;100164.91;;;24.47;63.32
49423;BME280;36998;51.974;20.150;2022-08-02T06:38:40;100155.50;;;24.48;63.01
49423;BME280;36998;51.974;20.150;2022-08-02T06:41:11;100164.09;;;24.51;63.00
49423;BME280;36998;51.974;20.150;2022-08-02T06:43:59;100161.25;;;24.68;63.12
49423;BME280;36998;51.974;20.150;2022-08-02T06:46:25;100170.09;;;24.92;62.22
49423;BME280;36998;51.974;20.150;2022-08-02T06:48:52;100175.09;;;25.22;61.26
49423;BME280;36998;51.974;20.150;2022-08-02T06:51:19;100170.09;;;25.52;60.83
49423;BME280;36998;51.974;20.150;2022-08-02T06:53:45;100169.69;;;25.75;59.76
49423;BME280;36998;51.974;20.150;2022-08-02T06:56:10;100171.44;;;25.86;59.49
49423;BME280;36998;51.974;20.150;2022-08-02T06:58:36;100180.84;;;25.85;59.28
49423;BME280;36998;51.974;20.150;2022-08-02T07:01:02;100180.59;;;25.87;59.56
49423;BME280;36998;51.974;20.150;2022-08-02T07:03:33;100177.31;;;25.95;59.37
49423;BME280;36998;51.974;20.150;2022-08-02T07:05:58;100177.03;;;25.91;58.78
49423;BME280;36998;51.974;20.150;2022-08-02T07:08:24;100180.09;;;25.95;58.42
49423;BME280;36998;51.974;20.150;2022-08-02T07:10:50;100174.09;;;26.13;57.55
49423;BME280;36998;51.974;20.150;2022-08-02T07:13:16;100184.16;;;26.35;56.40
49423;BME280;36998;51.974;20.150;2022-08-02T07:15:42;100192.28;;;26.52;56.06
49423;BME280;36998;51.974;20.150;2022-08-02T07:18:07;100183.44;;;26.55;55.21
49423;BME280;36998;51.974;20.150;2022-08-02T07:20:42;100186.25;;;26.60;54.49
49423;BME280;36998;51.974;20.150;2022-08-02T07:23:08;100184.03;;;26.62;54.52
49423;BME280;36998;51.974;20.150;2022-08-02T07:25:34;100176.81;;;26.61;54.21
49423;BME280;36998;51.974;20.150;2022-08-02T07:27:59;100181.00;;;26.69;53.97
49423;BME280;36998;51.974;20.150;2022-08-02T07:30:25;100179.09;;;26.84;53.06
49423;BME280;36998;51.974;20.150;2022-08-02T07:32:50;100180.78;;;27.01;52.72
49423;BME280;36998;51.974;20.150;2022-08-02T07:35:16;100189.13;;;27.11;52.12
49423;BME280;36998;51.974;20.150;2022-08-02T07:37:42;100183.56;;;27.06;51.59
49423;BME280;36998;51.974;20.150;2022-08-02T07:40:10;100181.66;;;27.12;51.44
49423;BME280;36998;51.974;20.150;2022-08-02T07:42:46;100187.19;;;27.12;51.14
49423;BME280;36998;51.974;20.150;2022-08-02T07:45:12;100180.31;;;27.14;50.72
49423;BME280;36998;51.974;20.150;2022-08-02T07:47:39;100188.63;;;27.14;51.43
49423;BME280;36998;51.974;20.150;2022-08-02T07:50:06;100179.97;;;27.11;50.91
49423;BME280;36998;51.974;20.150;2022-08-02T07:52:33;100184.69;;;27.10;50.45
49423;BME280;36998;51.974;20.150;2022-08-02T07:54:58;100181.63;;;27.01;49.99
49423;BME280;36998;51.974;20.150;2022-08-02T07:57:24;100186.59;;;26.94;49.75
49423;BME280;36998;51.974;20.150;2022-08-02T07:59:49;100179.94;;;26.90;49.54
49423;BME280;36998;51.974;20.150;2022-08-02T08:02:16;100184.94;;;26.88;49.06
49423;BME280;36998;51.974;20.150;2022-08-02T08:05:05;100179.69;;;26.92;48.91
49423;BME280;36998;51.974;20.150;2022-08-02T08:07:31;100185.78;;;26.89;49.46
49423;BME280;36998;51.974;20.150;2022-08-02T08:10:32;100192.97;;;26.90;49.43
49423;BME280;36998;51.974;20.150;2022-08-02T08:12:57;100184.38;;;26.91;49.32
49423;BME280;36998;51.974;20.150;2022-08-02T08:15:43;100195.44;;;26.91;49.45
49423;BME280;36998;51.974;20.150;2022-08-02T08:18:09;100188.81;;;26.97;50.08
49423;BME280;36998;51.974;20.150;2022-08-02T08:20:36;100187.47;;;27.05;49.96
49423;BME280;36998;51.974;20.150;2022-08-02T08:23:01;100188.28;;;27.11;49.37
49423;BME280;36998;51.974;20.150;2022-08-02T08:25:27;100188.63;;;27.14;49.72
49423;BME280;36998;51.974;20.150;2022-08-02T08:27:55;100184.72;;;27.20;49.55
49423;BME280;36998;51.974;20.150;2022-08-02T08:30:21;100180.31;;;27.35;48.74
49423;BME280;36998;51.974;20.150;2022-08-02T08:32:47;100186.69;;;27.50;48.12
49423;BME280;36998;51.974;20.150;2022-08-02T08:35:12;100193.06;;;27.61;47.16
49423;BME280;36998;51.974;20.150;2022-08-02T08:37:38;100191.94;;;27.67;46.71
49423;BME280;36998;51.974;20.150;2022-08-02T08:40:05;100189.72;;;27.64;46.14
49423;BME280;36998;51.974;20.150;2022-08-02T08:42:31;100195.00;;;27.61;46.42
49423;BME280;36998;51.974;20.150;2022-08-02T08:44:58;100201.38;;;27.61;45.94
49423;BME280;36998;51.974;20.150;2022-08-02T08:47:32;100190.81;;;27.68;44.99
49423;BME280;36998;51.974;20.150;2022-08-02T08:50:03;100191.38;;;27.70;44.68
49423;BME280;36998;51.974;20.150;2022-08-02T08:52:34;100193.34;;;27.70;43.98
49423;BME280;36998;51.974;20.150;2022-08-02T08:55:04;100196.13;;;27.80;43.70
49423;BME280;36998;51.974;20.150;2022-08-02T08:57:31;100203.59;;;27.85;43.73
49423;BME280;36998;51.974;20.150;2022-08-02T08:59:59;100206.34;;;27.95;43.40
49423;BME280;36998;51.974;20.150;2022-08-02T09:02:25;100207.44;;;28.09;43.79
49423;BME280;36998;51.974;20.150;2022-08-02T09:04:51;100209.31;;;28.34;43.07
49423;BME280;36998;51.974;20.150;2022-08-02T09:07:16;100203.38;;;28.66;42.00
49423;BME280;36998;51.974;20.150;2022-08-02T09:09:42;100206.47;;;29.09;41.17
49423;BME280;36998;51.974;20.150;2022-08-02T09:12:15;100210.41;;;29.43;40.40
49423;BME280;36998;51.974;20.150;2022-08-02T09:14:41;100218.13;;;29.85;39.88
49423;BME280;36998;51.974;20.150;2022-08-02T09:17:08;100205.34;;;30.37;39.22
49423;BME280;36998;51.974;20.150;2022-08-02T09:19:36;100208.63;;;30.87;38.55
49423;BME280;36998;51.974;20.150;2022-08-02T09:22:05;100204.03;;;31.15;37.48
49423;BME280;36998;51.974;20.150;2022-08-02T09:24:49;100198.22;;;31.50;37.50
49423;BME280;36998;51.974;20.150;2022-08-02T09:27:20;100204.91;;;31.81;36.33
49423;BME280;36998;51.974;20.150;2022-08-02T09:29:48;100203.97;;;32.05;36.02
49423;BME280;36998;51.974;20.150;2022-08-02T09:32:14;100204.38;;;32.12;35.95
49423;BME280;36998;51.974;20.150;2022-08-02T09:37:24;100211.81;;;32.16;36.20
49423;BME280;36998;51.974;20.150;2022-08-02T09:39:49;100215.63;;;32.07;36.17
49423;BME280;36998;51.974;20.150;2022-08-02T09:42:35;100212.97;;;31.69;36.11
49423;BME280;36998;51.974;20.150;2022-08-02T09:45:01;100214.06;;;31.35;36.49
49423;BME280;36998;51.974;20.150;2022-08-02T09:47:33;100211.28;;;30.97;36.27
49423;BME280;36998;51.974;20.150;2022-08-02T09:49:58;100221.28;;;30.55;37.60
49423;BME280;36998;51.974;20.150;2022-08-02T09:52:26;100216.19;;;30.39;38.06
49423;BME280;36998;51.974;20.150;2022-08-02T09:54:52;100224.13;;;30.26;37.90
49423;BME280;36998;51.974;20.150;2022-08-02T09:57:26;100216.22;;;30.09;38.26
49423;BME280;36998;51.974;20.150;2022-08-02T09:59:57;100216.84;;;30.01;38.47
49423;BME280;36998;51.974;20.150;2022-08-02T10:02:23;100235.59;;;29.96;39.11
49423;BME280;36998;51.974;20.150;2022-08-02T10:04:48;100228.19;;;29.81;38.86
49423;BME280;36998;51.974;20.150;2022-08-02T10:07:15;100226.16;;;29.57;39.32
49423;BME280;36998;51.974;20.150;2022-08-02T10:09:42;100237.22;;;29.28;39.78
49423;BME280;36998;51.974;20.150;2022-08-02T10:12:08;100229.28;;;29.06;39.89
49423;BME280;36998;51.974;20.150;2022-08-02T10:15:09;100234.97;;;28.81;41.03
49423;BME280;36998;51.974;20.150;2022-08-02T10:17:36;100227.91;;;28.49;41.53
49423;BME280;36998;51.974;20.150;2022-08-02T10:20:02;100230.72;;;28.23;41.82
49423;BME280;36998;51.974;20.150;2022-08-02T10:22:28;100228.56;;;28.00;42.48
49423;BME280;36998;51.974;20.150;2022-08-02T10:24:57;100226.63;;;27.90;43.12
49423;BME280;36998;51.974;20.150;2022-08-02T10:27:23;100230.50;;;27.69;44.01
49423;BME280;36998;51.974;20.150;2022-08-02T10:29:50;100241.31;;;27.55;45.08
49423;BME280;36998;51.974;20.150;2022-08-02T10:32:22;100229.13;;;27.46;45.30
49423;BME280;36998;51.974;20.150;2022-08-02T10:35:10;100236.34;;;27.47;45.11
49423;BME280;36998;51.974;20.150;2022-08-02T10:37:38;100239.66;;;27.54;44.70
49423;BME280;36998;51.974;20.150;2022-08-02T10:40:05;100239.66;;;27.64;44.52
49423;BME280;36998;51.974;20.150;2022-08-02T10:42:48;100232.72;;;27.92;44.56
49423;BME280;36998;51.974;20.150;2022-08-02T10:45:16;100235.97;;;28.30;43.92
49423;BME280;36998;51.974;20.150;2022-08-02T10:55:44;100233.38;;;29.63;43.61
49423;BME280;36998;51.974;20.150;2022-08-02T10:58:21;100224.84;;;29.84;43.39
49423;BME280;36998;51.974;20.150;2022-08-02T11:01:29;100220.09;;;29.84;43.21
49423;BME280;36998;51.974;20.150;2022-08-02T11:03:58;100230.28;;;29.94;42.65
49423;BME280;36998;51.974;20.150;2022-08-02T11:06:24;100227.13;;;30.06;42.97
49423;BME280;36998;51.974;20.150;2022-08-02T11:08:49;100223.16;;;30.12;42.34
49423;BME280;36998;51.974;20.150;2022-08-02T11:11:17;100227.41;;;30.33;42.09
49423;BME280;36998;51.974;20.150;2022-08-02T11:19:22;100209.56;;;31.86;39.55
49423;BME280;36998;51.974;20.150;2022-08-02T11:22:04;100203.72;;;32.01;39.36
49423;BME280;36998;51.974;20.150;2022-08-02T11:24:35;100209.22;;;32.20;38.54
49423;BME280;36998;51.974;20.150;2022-08-02T11:27:05;100213.78;;;32.02;37.81
49423;BME280;36998;51.974;20.150;2022-08-02T11:29:40;100213.47;;;31.71;37.67
49423;BME280;36998;51.974;20.150;2022-08-02T11:32:08;100220.47;;;31.36;37.87
49423;BME280;36998;51.974;20.150;2022-08-02T11:34:41;100221.22;;;31.04;38.70
49423;BME280;36998;51.974;20.150;2022-08-02T11:37:07;100226.91;;;30.50;38.85
49423;BME280;36998;51.974;20.150;2022-08-02T11:39:32;100227.41;;;30.04;39.40
49423;BME280;36998;51.974;20.150;2022-08-02T11:41:59;100231.31;;;29.74;39.32
49423;BME280;36998;51.974;20.150;2022-08-02T11:44:39;100231.31;;;29.40;40.60
49423;BME280;36998;51.974;20.150;2022-08-02T11:47:05;100247.13;;;28.95;41.61
49423;BME280;36998;51.974;20.150;2022-08-02T11:49:32;100243.19;;;28.41;43.08
49423;BME280;36998;51.974;20.150;2022-08-02T11:52:03;100246.59;;;27.72;44.30
49423;BME280;36998;51.974;20.150;2022-08-02T11:54:53;100244.34;;;27.18;45.01
49423;BME280;36998;51.974;20.150;2022-08-02T11:57:21;100244.25;;;26.92;46.21
49423;BME280;36998;51.974;20.150;2022-08-02T12:00:17;100243.47;;;26.39;48.35
49423;BME280;36998;51.974;20.150;2022-08-02T12:02:46;100246.16;;;26.29;48.51
49423;BME280;36998;51.974;20.150;2022-08-02T12:05:18;100248.72;;;26.41;48.10
49423;BME280;36998;51.974;20.150;2022-08-02T12:07:44;100248.94;;;26.87;47.23
49423;BME280;36998;51.974;20.150;2022-08-02T12:10:15;100243.25;;;27.29;46.19
49423;BME280;36998;51.974;20.150;2022-08-02T12:12:50;100234.97;;;27.80;45.10
49423;BME280;36998;51.974;20.150;2022-08-02T12:15:39;100238.44;;;28.52;43.63
49423;BME280;36998;51.974;20.150;2022-08-02T12:18:17;100229.44;;;29.30;42.24
49423;BME280;36998;51.974;20.150;2022-08-02T12:21:02;100223.25;;;30.31;40.28
49423;BME280;36998;51.974;20.150;2022-08-02T12:23:28;100220.53;;;31.12;38.85
49423;BME280;36998;51.974;20.150;2022-08-02T12:28:33;100210.16;;;36.07;31.12
49423;BME280;36998;51.974;20.150;2022-08-02T12:31:00;100219.06;;;39.69;25.97
49423;BME280;36998;51.974;20.150;2022-08-02T12:33:42;100215.94;;;41.79;24.39
49423;BME280;36998;51.974;20.150;2022-08-02T12:36:18;100214.22;;;43.19;22.05
49423;BME280;36998;51.974;20.150;2022-08-02T12:38:58;100216.94;;;42.55;22.31
49423;BME280;36998;51.974;20.150;2022-08-02T12:41:24;100224.44;;;41.79;22.99
49423;BME280;36998;51.974;20.150;2022-08-02T12:43:51;100218.00;;;42.01;22.72
49423;BME280;36998;51.974;20.150;2022-08-02T12:46:23;100208.81;;;45.37;19.29
49423;BME280;36998;51.974;20.150;2022-08-02T12:48:49;100217.84;;;47.18;17.79
49423;BME280;36998;51.974;20.150;2022-08-02T12:51:26;100217.13;;;46.81;17.37
49423;BME280;36998;51.974;20.150;2022-08-02T12:54:16;100215.34;;;48.00;16.55
49423;BME280;36998;51.974;20.150;2022-08-02T12:56:42;100217.84;;;48.43;15.74
49423;BME280;36998;51.974;20.150;2022-08-02T12:59:10;100221.97;;;45.73;17.90
49423;BME280;36998;51.974;20.150;2022-08-02T13:01:38;100225.75;;;43.30;20.36
49423;BME280;36998;51.974;20.150;2022-08-02T13:04:07;100233.47;;;41.84;22.48
49423;BME280;36998;51.974;20.150;2022-08-02T13:06:33;100231.41;;;40.21;22.80
49423;BME280;36998;51.974;20.150;2022-08-02T13:08:59;100226.06;;;39.31;24.07
49423;BME280;36998;51.974;20.150;2022-08-02T13:11:25;100221.31;;;38.95;24.16
49423;BME280;36998;51.974;20.150;2022-08-02T13:13:51;100227.91;;;38.38;24.43
49423;BME280;36998;51.974;20.150;2022-08-02T13:16:17;100226.84;;;37.85;24.85
49423;BME280;36998;51.974;20.150;2022-08-02T13:18:43;100227.56;;;37.07;25.48
49423;BME280;36998;51.974;20.150;2022-08-02T13:21:13;100222.63;;;36.74;25.95